Hovedside
METAR-TAF:

METAR-TAF

Lufthavner :

Sint Eustatius, De nederlandske Antillene

breddegrad: 17-29N, lengdegrad: 062-59W, høyde over havet: 38 m

Gjeldene værobservasjon

Denne rapporten ble laget for 39 minutter siden, klokken 12:55 UTC
Vind 8 kt fra Øst, skiftende mellom Nordøst og Øst-sørøst
Temperatur 30°C
Luftfuktighet 75%
Trykk 1017 hPa

METAR: TNCE 191255Z AUTO 09008KT 050V120 //// // ///////// 30/25 Q1017 RE//

Tid: 09:34 (13:34 UTC)


TAF: fraværende

Værobservasjoner og værvarsel for over 4000 flyplasser (METAR- og TAF-rapporter).

Tilgjengelige stasjoner er representert av de røde og gule prikkene på kartet.

Hold musepekeren over prikken for å se navnet på stasjonen.

Klikk så for å se værobservasjoner og -varsler.

For å forandre kartet kan du klikke på den grønne knappen med svart kryss for å zoome inn, på den grønne knappen med strek for å zoome ut, eller på de grønne pilene for å se tilstøtende kart.


METAR-TAF: